sensor_id;sensor_type;location;lat;lon;timestamp;P1;durP1;ratioP1;P2;durP2;ratioP2
79710;SDS011;69465;51.630;6.570;2023-06-22T00:00:51;19.07;;;15.33;;
79710;SDS011;69465;51.630;6.570;2023-06-22T00:03:19;21.47;;;15.60;;
79710;SDS011;69465;51.630;6.570;2023-06-22T00:05:48;19.03;;;15.37;;
79710;SDS011;69465;51.630;6.570;2023-06-22T00:08:15;18.63;;;15.23;;
79710;SDS011;69465;51.630;6.570;2023-06-22T00:10:42;18.60;;;15.83;;
79710;SDS011;69465;51.630;6.570;2023-06-22T00:13:10;17.93;;;15.83;;
79710;SDS011;69465;51.630;6.570;2023-06-22T00:15:38;20.97;;;15.27;;
79710;SDS011;69465;51.630;6.570;2023-06-22T00:18:08;16.97;;;14.80;;
79710;SDS011;69465;51.630;6.570;2023-06-22T00:20:36;21.67;;;15.90;;
79710;SDS011;69465;51.630;6.570;2023-06-22T00:23:04;18.90;;;15.97;;
79710;SDS011;69465;51.630;6.570;2023-06-22T00:25:32;18.93;;;15.17;;
79710;SDS011;69465;51.630;6.570;2023-06-22T00:27:58;17.93;;;15.10;;
79710;SDS011;69465;51.630;6.570;2023-06-22T00:30:25;18.03;;;14.47;;
79710;SDS011;69465;51.630;6.570;2023-06-22T00:32:52;20.43;;;16.50;;
79710;SDS011;69465;51.630;6.570;2023-06-22T00:35:19;19.93;;;16.27;;
79710;SDS011;69465;51.630;6.570;2023-06-22T00:37:46;20.03;;;16.23;;
79710;SDS011;69465;51.630;6.570;2023-06-22T00:40:13;20.27;;;16.07;;
79710;SDS011;69465;51.630;6.570;2023-06-22T00:42:40;22.30;;;16.20;;
79710;SDS011;69465;51.630;6.570;2023-06-22T00:45:07;20.30;;;16.33;;
79710;SDS011;69465;51.630;6.570;2023-06-22T00:47:34;19.80;;;16.10;;
79710;SDS011;69465;51.630;6.570;2023-06-22T00:50:02;20.05;;;17.95;;
79710;SDS011;69465;51.630;6.570;2023-06-22T00:52:32;19.30;;;16.93;;
79710;SDS011;69465;51.630;6.570;2023-06-22T00:54:59;19.17;;;15.97;;
79710;SDS011;69465;51.630;6.570;2023-06-22T00:57:28;20.57;;;16.07;;
79710;SDS011;69465;51.630;6.570;2023-06-22T00:59:56;17.77;;;15.43;;
79710;SDS011;69465;51.630;6.570;2023-06-22T01:02:23;18.67;;;16.20;;
79710;SDS011;69465;51.630;6.570;2023-06-22T01:04:50;19.73;;;16.77;;
79710;SDS011;69465;51.630;6.570;2023-06-22T01:07:30;18.53;;;16.23;;
79710;SDS011;69465;51.630;6.570;2023-06-22T01:10:07;17.47;;;15.10;;
79710;SDS011;69465;51.630;6.570;2023-06-22T01:12:40;20.27;;;15.43;;
79710;SDS011;69465;51.630;6.570;2023-06-22T01:15:16;19.03;;;15.70;;
79710;SDS011;69465;51.630;6.570;2023-06-22T01:17:49;18.43;;;16.03;;
79710;SDS011;69465;51.630;6.570;2023-06-22T01:20:18;20.10;;;16.30;;
79710;SDS011;69465;51.630;6.570;2023-06-22T01:23:02;18.00;;;16.10;;
79710;SDS011;69465;51.630;6.570;2023-06-22T01:31:22;19.17;;;17.13;;
79710;SDS011;69465;51.630;6.570;2023-06-22T01:33:58;19.90;;;17.30;;
79710;SDS011;69465;51.630;6.570;2023-06-22T01:36:27;17.67;;;15.20;;
79710;SDS011;69465;51.630;6.570;2023-06-22T01:38:56;18.43;;;16.50;;
79710;SDS011;69465;51.630;6.570;2023-06-22T01:41:25;19.27;;;17.03;;
79710;SDS011;69465;51.630;6.570;2023-06-22T01:43:53;19.67;;;16.50;;
79710;SDS011;69465;51.630;6.570;2023-06-22T01:46:21;19.43;;;16.23;;
79710;SDS011;69465;51.630;6.570;2023-06-22T01:48:48;19.30;;;16.17;;
79710;SDS011;69465;51.630;6.570;2023-06-22T01:51:16;21.27;;;17.13;;
79710;SDS011;69465;51.630;6.570;2023-06-22T01:53:43;16.73;;;14.80;;
79710;SDS011;69465;51.630;6.570;2023-06-22T01:56:10;19.43;;;16.20;;
79710;SDS011;69465;51.630;6.570;2023-06-22T01:58:40;22.70;;;17.33;;
79710;SDS011;69465;51.630;6.570;2023-06-22T02:01:13;18.87;;;16.00;;
79710;SDS011;69465;51.630;6.570;2023-06-22T02:03:47;18.60;;;16.50;;
79710;SDS011;69465;51.630;6.570;2023-06-22T02:06:27;19.63;;;16.57;;
79710;SDS011;69465;51.630;6.570;2023-06-22T02:08:59;22.77;;;16.50;;
79710;SDS011;69465;51.630;6.570;2023-06-22T02:11:29;18.43;;;16.23;;
79710;SDS011;69465;51.630;6.570;2023-06-22T02:13:57;19.90;;;16.73;;
79710;SDS011;69465;51.630;6.570;2023-06-22T02:16:25;18.73;;;16.17;;
79710;SDS011;69465;51.630;6.570;2023-06-22T02:18:52;20.97;;;17.83;;
79710;SDS011;69465;51.630;6.570;2023-06-22T02:21:19;19.43;;;15.73;;
79710;SDS011;69465;51.630;6.570;2023-06-22T02:23:47;19.20;;;16.43;;
79710;SDS011;69465;51.630;6.570;2023-06-22T02:26:15;22.73;;;16.60;;
79710;SDS011;69465;51.630;6.570;2023-06-22T02:28:43;20.80;;;17.20;;
79710;SDS011;69465;51.630;6.570;2023-06-22T02:31:10;21.70;;;18.03;;
79710;SDS011;69465;51.630;6.570;2023-06-22T02:33:37;20.77;;;16.80;;
79710;SDS011;69465;51.630;6.570;2023-06-22T02:36:03;20.40;;;18.23;;
79710;SDS011;69465;51.630;6.570;2023-06-22T02:38:31;21.87;;;17.30;;
79710;SDS011;69465;51.630;6.570;2023-06-22T02:40:57;22.50;;;18.33;;
79710;SDS011;69465;51.630;6.570;2023-06-22T02:43:24;24.07;;;18.97;;
79710;SDS011;69465;51.630;6.570;2023-06-22T02:45:51;21.30;;;18.83;;
79710;SDS011;69465;51.630;6.570;2023-06-22T02:48:18;21.67;;;18.43;;
79710;SDS011;69465;51.630;6.570;2023-06-22T02:50:44;21.33;;;17.37;;
79710;SDS011;69465;51.630;6.570;2023-06-22T02:53:11;20.97;;;17.63;;
79710;SDS011;69465;51.630;6.570;2023-06-22T02:55:38;21.20;;;17.97;;
79710;SDS011;69465;51.630;6.570;2023-06-22T02:58:05;23.57;;;18.37;;
79710;SDS011;69465;51.630;6.570;2023-06-22T03:00:32;21.30;;;18.60;;
79710;SDS011;69465;51.630;6.570;2023-06-22T03:02:58;21.50;;;19.17;;
79710;SDS011;69465;51.630;6.570;2023-06-22T03:05:25;26.37;;;19.67;;
79710;SDS011;69465;51.630;6.570;2023-06-22T03:07:52;21.10;;;18.87;;
79710;SDS011;69465;51.630;6.570;2023-06-22T03:10:19;20.97;;;18.60;;
79710;SDS011;69465;51.630;6.570;2023-06-22T03:12:45;22.43;;;19.57;;
79710;SDS011;69465;51.630;6.570;2023-06-22T03:15:13;24.87;;;19.80;;
79710;SDS011;69465;51.630;6.570;2023-06-22T03:17:40;23.53;;;18.73;;
79710;SDS011;69465;51.630;6.570;2023-06-22T03:20:07;22.37;;;19.67;;
79710;SDS011;69465;51.630;6.570;2023-06-22T03:22:35;23.47;;;20.00;;
79710;SDS011;69465;51.630;6.570;2023-06-22T03:25:03;24.77;;;20.00;;
79710;SDS011;69465;51.630;6.570;2023-06-22T03:27:30;23.63;;;20.13;;
79710;SDS011;69465;51.630;6.570;2023-06-22T03:29:57;23.37;;;20.00;;
79710;SDS011;69465;51.630;6.570;2023-06-22T03:32:23;23.60;;;20.30;;
79710;SDS011;69465;51.630;6.570;2023-06-22T03:34:50;23.93;;;19.77;;
79710;SDS011;69465;51.630;6.570;2023-06-22T03:37:17;24.47;;;20.33;;
79710;SDS011;69465;51.630;6.570;2023-06-22T03:39:44;28.93;;;20.60;;
79710;SDS011;69465;51.630;6.570;2023-06-22T03:42:10;27.30;;;22.40;;
79710;SDS011;69465;51.630;6.570;2023-06-22T03:44:37;25.60;;;21.40;;
79710;SDS011;69465;51.630;6.570;2023-06-22T03:47:05;27.00;;;21.43;;
79710;SDS011;69465;51.630;6.570;2023-06-22T03:49:32;27.87;;;21.80;;
79710;SDS011;69465;51.630;6.570;2023-06-22T03:52:00;27.07;;;22.47;;
79710;SDS011;69465;51.630;6.570;2023-06-22T03:54:28;29.10;;;22.70;;
79710;SDS011;69465;51.630;6.570;2023-06-22T03:56:58;28.00;;;23.77;;
79710;SDS011;69465;51.630;6.570;2023-06-22T03:59:25;27.33;;;23.10;;
79710;SDS011;69465;51.630;6.570;2023-06-22T04:01:52;25.93;;;23.00;;
79710;SDS011;69465;51.630;6.570;2023-06-22T04:04:18;28.63;;;23.40;;
79710;SDS011;69465;51.630;6.570;2023-06-22T04:06:45;28.70;;;23.00;;
79710;SDS011;69465;51.630;6.570;2023-06-22T04:09:12;33.03;;;23.90;;
79710;SDS011;69465;51.630;6.570;2023-06-22T04:11:39;30.17;;;23.77;;
79710;SDS011;69465;51.630;6.570;2023-06-22T04:14:05;26.20;;;22.47;;
79710;SDS011;69465;51.630;6.570;2023-06-22T04:16:33;28.80;;;24.27;;
79710;SDS011;69465;51.630;6.570;2023-06-22T04:18:59;29.67;;;23.07;;
79710;SDS011;69465;51.630;6.570;2023-06-22T04:21:27;26.70;;;22.37;;
79710;SDS011;69465;51.630;6.570;2023-06-22T04:23:53;25.03;;;21.80;;
79710;SDS011;69465;51.630;6.570;2023-06-22T04:26:20;29.57;;;23.70;;
79710;SDS011;69465;51.630;6.570;2023-06-22T04:28:47;26.43;;;22.47;;
79710;SDS011;69465;51.630;6.570;2023-06-22T04:31:14;26.20;;;22.27;;
79710;SDS011;69465;51.630;6.570;2023-06-22T04:33:41;27.57;;;23.53;;
79710;SDS011;69465;51.630;6.570;2023-06-22T04:36:07;26.27;;;20.73;;
79710;SDS011;69465;51.630;6.570;2023-06-22T04:38:34;26.43;;;22.93;;
79710;SDS011;69465;51.630;6.570;2023-06-22T04:41:01;33.07;;;29.70;;
79710;SDS011;69465;51.630;6.570;2023-06-22T04:43:27;26.07;;;21.40;;
79710;SDS011;69465;51.630;6.570;2023-06-22T04:45:54;26.40;;;22.00;;
79710;SDS011;69465;51.630;6.570;2023-06-22T04:48:21;24.03;;;21.43;;
79710;SDS011;69465;51.630;6.570;2023-06-22T04:50:47;24.17;;;20.30;;
79710;SDS011;69465;51.630;6.570;2023-06-22T04:53:14;25.23;;;20.77;;
79710;SDS011;69465;51.630;6.570;2023-06-22T04:55:40;23.13;;;20.63;;
79710;SDS011;69465;51.630;6.570;2023-06-22T04:58:07;24.13;;;20.23;;
79710;SDS011;69465;51.630;6.570;2023-06-22T05:00:34;24.53;;;21.73;;
79710;SDS011;69465;51.630;6.570;2023-06-22T05:03:00;24.57;;;20.97;;
79710;SDS011;69465;51.630;6.570;2023-06-22T05:05:44;25.37;;;20.73;;
79710;SDS011;69465;51.630;6.570;2023-06-22T05:08:11;23.63;;;19.43;;
79710;SDS011;69465;51.630;6.570;2023-06-22T05:10:39;21.47;;;18.83;;
79710;SDS011;69465;51.630;6.570;2023-06-22T05:13:24;24.53;;;18.67;;
79710;SDS011;69465;51.630;6.570;2023-06-22T05:15:51;17.20;;;13.93;;
79710;SDS011;69465;51.630;6.570;2023-06-22T05:18:18;21.63;;;19.30;;
79710;SDS011;69465;51.630;6.570;2023-06-22T05:20:45;16.03;;;13.20;;
79710;SDS011;69465;51.630;6.570;2023-06-22T05:23:11;18.07;;;14.97;;
79710;SDS011;69465;51.630;6.570;2023-06-22T05:25:38;14.97;;;12.87;;
79710;SDS011;69465;51.630;6.570;2023-06-22T05:28:05;14.97;;;11.70;;
79710;SDS011;69465;51.630;6.570;2023-06-22T05:30:32;19.73;;;17.63;;
79710;SDS011;69465;51.630;6.570;2023-06-22T05:32:58;19.17;;;17.17;;
79710;SDS011;69465;51.630;6.570;2023-06-22T05:35:25;18.57;;;15.33;;
79710;SDS011;69465;51.630;6.570;2023-06-22T05:37:52;16.70;;;14.93;;
79710;SDS011;69465;51.630;6.570;2023-06-22T05:40:18;22.57;;;18.93;;
79710;SDS011;69465;51.630;6.570;2023-06-22T05:42:45;17.67;;;15.47;;
79710;SDS011;69465;51.630;6.570;2023-06-22T05:45:12;22.83;;;20.43;;
79710;SDS011;69465;51.630;6.570;2023-06-22T05:47:39;24.43;;;21.60;;
79710;SDS011;69465;51.630;6.570;2023-06-22T05:50:05;23.83;;;20.63;;
79710;SDS011;69465;51.630;6.570;2023-06-22T05:52:33;24.00;;;21.33;;
79710;SDS011;69465;51.630;6.570;2023-06-22T05:55:01;24.33;;;21.73;;
79710;SDS011;69465;51.630;6.570;2023-06-22T05:57:28;27.57;;;22.23;;
79710;SDS011;69465;51.630;6.570;2023-06-22T05:59:55;24.70;;;22.20;;
79710;SDS011;69465;51.630;6.570;2023-06-22T06:02:22;25.17;;;22.47;;
79710;SDS011;69465;51.630;6.570;2023-06-22T06:04:49;23.23;;;20.80;;
79710;SDS011;69465;51.630;6.570;2023-06-22T06:07:15;23.67;;;20.80;;
79710;SDS011;69465;51.630;6.570;2023-06-22T06:09:42;25.07;;;21.97;;
79710;SDS011;69465;51.630;6.570;2023-06-22T06:12:08;24.33;;;21.73;;
79710;SDS011;69465;51.630;6.570;2023-06-22T06:14:35;25.90;;;21.87;;
79710;SDS011;69465;51.630;6.570;2023-06-22T06:17:02;25.23;;;22.30;;
79710;SDS011;69465;51.630;6.570;2023-06-22T06:19:29;27.77;;;23.03;;
79710;SDS011;69465;51.630;6.570;2023-06-22T06:21:55;23.97;;;21.43;;
79710;SDS011;69465;51.630;6.570;2023-06-22T06:24:22;23.57;;;21.10;;
79710;SDS011;69465;51.630;6.570;2023-06-22T06:26:49;24.80;;;20.93;;
79710;SDS011;69465;51.630;6.570;2023-06-22T06:29:15;25.50;;;22.57;;
79710;SDS011;69465;51.630;6.570;2023-06-22T06:31:42;25.13;;;21.33;;
79710;SDS011;69465;51.630;6.570;2023-06-22T06:34:09;24.60;;;21.80;;
79710;SDS011;69465;51.630;6.570;2023-06-22T06:36:36;23.33;;;20.90;;
79710;SDS011;69465;51.630;6.570;2023-06-22T06:39:02;29.17;;;22.40;;
79710;SDS011;69465;51.630;6.570;2023-06-22T06:41:29;26.47;;;21.87;;
79710;SDS011;69465;51.630;6.570;2023-06-22T06:43:55;24.57;;;20.53;;
79710;SDS011;69465;51.630;6.570;2023-06-22T06:46:22;25.47;;;20.40;;
79710;SDS011;69465;51.630;6.570;2023-06-22T06:48:48;23.60;;;20.93;;
79710;SDS011;69465;51.630;6.570;2023-06-22T06:51:15;23.73;;;20.87;;
79710;SDS011;69465;51.630;6.570;2023-06-22T06:53:41;23.60;;;21.00;;
79710;SDS011;69465;51.630;6.570;2023-06-22T06:56:08;21.73;;;18.10;;
79710;SDS011;69465;51.630;6.570;2023-06-22T06:58:35;24.20;;;20.67;;
79710;SDS011;69465;51.630;6.570;2023-06-22T07:01:02;21.53;;;19.23;;
79710;SDS011;69465;51.630;6.570;2023-06-22T07:03:29;23.93;;;21.23;;
79710;SDS011;69465;51.630;6.570;2023-06-22T07:05:55;23.33;;;20.07;;
79710;SDS011;69465;51.630;6.570;2023-06-22T07:08:22;23.30;;;19.63;;
79710;SDS011;69465;51.630;6.570;2023-06-22T07:10:48;24.40;;;21.13;;
79710;SDS011;69465;51.630;6.570;2023-06-22T07:13:15;24.87;;;20.57;;
79710;SDS011;69465;51.630;6.570;2023-06-22T07:15:42;24.07;;;20.63;;
79710;SDS011;69465;51.630;6.570;2023-06-22T07:18:08;27.47;;;20.87;;
79710;SDS011;69465;51.630;6.570;2023-06-22T07:20:35;23.57;;;19.43;;
79710;SDS011;69465;51.630;6.570;2023-06-22T07:23:02;24.33;;;19.57;;
79710;SDS011;69465;51.630;6.570;2023-06-22T07:25:28;24.10;;;21.50;;
79710;SDS011;69465;51.630;6.570;2023-06-22T07:27:59;24.10;;;20.90;;
79710;SDS011;69465;51.630;6.570;2023-06-22T07:30:28;23.40;;;19.70;;
79710;SDS011;69465;51.630;6.570;2023-06-22T07:32:57;21.30;;;18.73;;
79710;SDS011;69465;51.630;6.570;2023-06-22T07:35:24;22.50;;;19.37;;
79710;SDS011;69465;51.630;6.570;2023-06-22T07:37:51;20.57;;;18.27;;
79710;SDS011;69465;51.630;6.570;2023-06-22T07:40:17;19.93;;;17.70;;
79710;SDS011;69465;51.630;6.570;2023-06-22T07:42:44;20.80;;;18.47;;
79710;SDS011;69465;51.630;6.570;2023-06-22T07:45:10;24.40;;;19.97;;
79710;SDS011;69465;51.630;6.570;2023-06-22T07:47:37;27.73;;;19.27;;
79710;SDS011;69465;51.630;6.570;2023-06-22T07:50:04;21.90;;;19.57;;
79710;SDS011;69465;51.630;6.570;2023-06-22T07:52:31;19.97;;;17.87;;
79710;SDS011;69465;51.630;6.570;2023-06-22T07:54:58;21.13;;;18.67;;
79710;SDS011;69465;51.630;6.570;2023-06-22T07:57:25;21.80;;;19.20;;
79710;SDS011;69465;51.630;6.570;2023-06-22T07:59:51;22.90;;;20.43;;
79710;SDS011;69465;51.630;6.570;2023-06-22T08:02:18;22.80;;;19.60;;
79710;SDS011;69465;51.630;6.570;2023-06-22T08:04:44;24.87;;;20.37;;
79710;SDS011;69465;51.630;6.570;2023-06-22T08:07:11;23.90;;;20.17;;
79710;SDS011;69465;51.630;6.570;2023-06-22T08:09:37;21.73;;;19.00;;
79710;SDS011;69465;51.630;6.570;2023-06-22T08:12:05;20.00;;;17.90;;
79710;SDS011;69465;51.630;6.570;2023-06-22T08:14:32;23.57;;;19.80;;
79710;SDS011;69465;51.630;6.570;2023-06-22T08:16:58;25.00;;;20.63;;
79710;SDS011;69465;51.630;6.570;2023-06-22T08:19:25;22.00;;;18.70;;
79710;SDS011;69465;51.630;6.570;2023-06-22T08:21:51;21.77;;;19.37;;
79710;SDS011;69465;51.630;6.570;2023-06-22T08:24:18;21.23;;;19.03;;
79710;SDS011;69465;51.630;6.570;2023-06-22T08:26:45;22.13;;;19.70;;
79710;SDS011;69465;51.630;6.570;2023-06-22T08:29:11;22.27;;;19.97;;
79710;SDS011;69465;51.630;6.570;2023-06-22T08:31:38;21.57;;;18.43;;
79710;SDS011;69465;51.630;6.570;2023-06-22T08:34:04;21.97;;;19.13;;
79710;SDS011;69465;51.630;6.570;2023-06-22T08:36:31;22.90;;;19.27;;
79710;SDS011;69465;51.630;6.570;2023-06-22T08:38:58;20.97;;;18.37;;
79710;SDS011;69465;51.630;6.570;2023-06-22T08:41:25;21.07;;;18.97;;
79710;SDS011;69465;51.630;6.570;2023-06-22T08:43:51;21.23;;;19.13;;
79710;SDS011;69465;51.630;6.570;2023-06-22T08:46:18;20.10;;;17.93;;
79710;SDS011;69465;51.630;6.570;2023-06-22T08:48:45;19.47;;;17.37;;
79710;SDS011;69465;51.630;6.570;2023-06-22T08:51:12;22.57;;;17.70;;
79710;SDS011;69465;51.630;6.570;2023-06-22T08:53:38;23.97;;;18.77;;
79710;SDS011;69465;51.630;6.570;2023-06-22T08:56:05;21.17;;;18.67;;
79710;SDS011;69465;51.630;6.570;2023-06-22T08:58:31;22.07;;;17.53;;
79710;SDS011;69465;51.630;6.570;2023-06-22T09:00:58;22.30;;;18.07;;
79710;SDS011;69465;51.630;6.570;2023-06-22T09:03:24;20.70;;;18.50;;
79710;SDS011;69465;51.630;6.570;2023-06-22T09:05:51;21.77;;;18.80;;
79710;SDS011;69465;51.630;6.570;2023-06-22T09:08:18;21.57;;;18.90;;
79710;SDS011;69465;51.630;6.570;2023-06-22T09:10:45;22.50;;;18.90;;
79710;SDS011;69465;51.630;6.570;2023-06-22T09:13:11;22.87;;;18.97;;
79710;SDS011;69465;51.630;6.570;2023-06-22T09:15:38;21.10;;;18.07;;
79710;SDS011;69465;51.630;6.570;2023-06-22T09:18:04;22.03;;;19.53;;
79710;SDS011;69465;51.630;6.570;2023-06-22T09:20:31;22.13;;;19.83;;
79710;SDS011;69465;51.630;6.570;2023-06-22T09:22:58;20.90;;;18.70;;
79710;SDS011;69465;51.630;6.570;2023-06-22T09:25:25;22.90;;;20.30;;
79710;SDS011;69465;51.630;6.570;2023-06-22T09:27:52;21.63;;;19.30;;
79710;SDS011;69465;51.630;6.570;2023-06-22T09:30:18;20.60;;;18.40;;
79710;SDS011;69465;51.630;6.570;2023-06-22T09:32:45;20.60;;;18.07;;
79710;SDS011;69465;51.630;6.570;2023-06-22T09:35:12;23.63;;;19.73;;
79710;SDS011;69465;51.630;6.570;2023-06-22T09:37:39;21.87;;;19.57;;
79710;SDS011;69465;51.630;6.570;2023-06-22T09:40:07;21.13;;;18.30;;
79710;SDS011;69465;51.630;6.570;2023-06-22T09:42:33;23.80;;;17.60;;
79710;SDS011;69465;51.630;6.570;2023-06-22T09:45:00;22.53;;;19.03;;
79710;SDS011;69465;51.630;6.570;2023-06-22T09:47:27;22.30;;;18.97;;
79710;SDS011;69465;51.630;6.570;2023-06-22T09:49:55;22.90;;;19.37;;
79710;SDS011;69465;51.630;6.570;2023-06-22T09:52:22;19.87;;;17.63;;
79710;SDS011;69465;51.630;6.570;2023-06-22T09:54:56;21.60;;;19.10;;
79710;SDS011;69465;51.630;6.570;2023-06-22T09:57:22;22.47;;;19.93;;
79710;SDS011;69465;51.630;6.570;2023-06-22T09:59:49;26.43;;;19.47;;
79710;SDS011;69465;51.630;6.570;2023-06-22T10:02:16;50.90;;;46.00;;
79710;SDS011;69465;51.630;6.570;2023-06-22T10:04:42;21.17;;;17.97;;
79710;SDS011;69465;51.630;6.570;2023-06-22T10:07:09;21.37;;;18.47;;
79710;SDS011;69465;51.630;6.570;2023-06-22T10:09:36;24.60;;;19.60;;
79710;SDS011;69465;51.630;6.570;2023-06-22T10:12:02;20.17;;;17.87;;
79710;SDS011;69465;51.630;6.570;2023-06-22T10:14:30;22.57;;;20.27;;
79710;SDS011;69465;51.630;6.570;2023-06-22T10:16:56;21.23;;;18.23;;
79710;SDS011;69465;51.630;6.570;2023-06-22T10:19:25;21.60;;;19.23;;
79710;SDS011;69465;51.630;6.570;2023-06-22T10:21:52;22.67;;;19.50;;
79710;SDS011;69465;51.630;6.570;2023-06-22T10:24:18;21.80;;;18.70;;
79710;SDS011;69465;51.630;6.570;2023-06-22T10:26:45;25.00;;;20.50;;
79710;SDS011;69465;51.630;6.570;2023-06-22T10:29:11;26.03;;;22.17;;
79710;SDS011;69465;51.630;6.570;2023-06-22T10:31:43;28.03;;;23.83;;
79710;SDS011;69465;51.630;6.570;2023-06-22T10:34:10;28.83;;;23.67;;
79710;SDS011;69465;51.630;6.570;2023-06-22T10:36:36;30.87;;;24.90;;
79710;SDS011;69465;51.630;6.570;2023-06-22T10:39:03;32.70;;;27.07;;
79710;SDS011;69465;51.630;6.570;2023-06-22T10:41:29;26.33;;;23.30;;
79710;SDS011;69465;51.630;6.570;2023-06-22T10:43:56;28.90;;;24.90;;
79710;SDS011;69465;51.630;6.570;2023-06-22T10:46:26;28.73;;;24.80;;
79710;SDS011;69465;51.630;6.570;2023-06-22T10:48:52;25.57;;;22.10;;
79710;SDS011;69465;51.630;6.570;2023-06-22T10:51:19;31.17;;;25.10;;
79710;SDS011;69465;51.630;6.570;2023-06-22T10:53:46;28.73;;;24.37;;
79710;SDS011;69465;51.630;6.570;2023-06-22T10:56:12;27.00;;;24.00;;
79710;SDS011;69465;51.630;6.570;2023-06-22T10:58:39;29.93;;;24.80;;
79710;SDS011;69465;51.630;6.570;2023-06-22T11:01:05;27.30;;;23.20;;
79710;SDS011;69465;51.630;6.570;2023-06-22T11:03:32;25.43;;;22.73;;
79710;SDS011;69465;51.630;6.570;2023-06-22T11:05:59;27.00;;;23.73;;
79710;SDS011;69465;51.630;6.570;2023-06-22T11:08:25;26.67;;;23.77;;
79710;SDS011;69465;51.630;6.570;2023-06-22T11:10:52;25.60;;;21.93;;
79710;SDS011;69465;51.630;6.570;2023-06-22T11:13:19;27.50;;;22.33;;
79710;SDS011;69465;51.630;6.570;2023-06-22T11:15:45;26.27;;;22.50;;
79710;SDS011;69465;51.630;6.570;2023-06-22T11:18:12;30.40;;;22.93;;
79710;SDS011;69465;51.630;6.570;2023-06-22T11:20:38;24.40;;;21.63;;
79710;SDS011;69465;51.630;6.570;2023-06-22T11:23:05;24.57;;;21.37;;
79710;SDS011;69465;51.630;6.570;2023-06-22T11:25:32;26.37;;;22.97;;
79710;SDS011;69465;51.630;6.570;2023-06-22T11:28:01;23.63;;;21.13;;
79710;SDS011;69465;51.630;6.570;2023-06-22T11:30:28;29.43;;;23.93;;
79710;SDS011;69465;51.630;6.570;2023-06-22T11:32:58;25.67;;;22.67;;
79710;SDS011;69465;51.630;6.570;2023-06-22T11:35:25;27.07;;;22.67;;
79710;SDS011;69465;51.630;6.570;2023-06-22T11:37:52;27.53;;;24.57;;
79710;SDS011;69465;51.630;6.570;2023-06-22T11:40:18;28.57;;;24.93;;
79710;SDS011;69465;51.630;6.570;2023-06-22T11:42:45;29.03;;;25.37;;
79710;SDS011;69465;51.630;6.570;2023-06-22T11:45:12;29.10;;;24.40;;
79710;SDS011;69465;51.630;6.570;2023-06-22T11:47:38;27.40;;;24.50;;
79710;SDS011;69465;51.630;6.570;2023-06-22T11:50:06;28.23;;;25.27;;
79710;SDS011;69465;51.630;6.570;2023-06-22T11:52:33;28.37;;;25.20;;
79710;SDS011;69465;51.630;6.570;2023-06-22T11:55:00;27.27;;;23.93;;
79710;SDS011;69465;51.630;6.570;2023-06-22T11:57:26;30.23;;;25.53;;
79710;SDS011;69465;51.630;6.570;2023-06-22T11:59:53;29.40;;;24.80;;
79710;SDS011;69465;51.630;6.570;2023-06-22T12:02:20;32.63;;;26.73;;
79710;SDS011;69465;51.630;6.570;2023-06-22T12:04:47;30.77;;;25.80;;
79710;SDS011;69465;51.630;6.570;2023-06-22T12:07:13;29.90;;;26.70;;
79710;SDS011;69465;51.630;6.570;2023-06-22T12:09:40;31.93;;;26.50;;
79710;SDS011;69465;51.630;6.570;2023-06-22T12:12:06;31.40;;;27.50;;
79710;SDS011;69465;51.630;6.570;2023-06-22T12:14:33;33.10;;;29.17;;
79710;SDS011;69465;51.630;6.570;2023-06-22T12:17:00;35.10;;;30.13;;
79710;SDS011;69465;51.630;6.570;2023-06-22T12:19:26;37.30;;;29.23;;
79710;SDS011;69465;51.630;6.570;2023-06-22T12:21:53;36.83;;;30.63;;
79710;SDS011;69465;51.630;6.570;2023-06-22T12:24:19;39.20;;;32.03;;
79710;SDS011;69465;51.630;6.570;2023-06-22T12:26:46;43.43;;;34.47;;
79710;SDS011;69465;51.630;6.570;2023-06-22T12:29:13;37.30;;;31.90;;
79710;SDS011;69465;51.630;6.570;2023-06-22T12:31:39;35.90;;;31.20;;
79710;SDS011;69465;51.630;6.570;2023-06-22T12:34:06;39.37;;;33.27;;
79710;SDS011;69465;51.630;6.570;2023-06-22T12:36:33;44.20;;;35.63;;
79710;SDS011;69465;51.630;6.570;2023-06-22T12:38:59;44.90;;;35.57;;
79710;SDS011;69465;51.630;6.570;2023-06-22T12:41:26;47.20;;;37.10;;
79710;SDS011;69465;51.630;6.570;2023-06-22T12:43:53;43.37;;;34.10;;
79710;SDS011;69465;51.630;6.570;2023-06-22T12:46:19;38.60;;;31.67;;
79710;SDS011;69465;51.630;6.570;2023-06-22T12:48:46;43.43;;;36.03;;
79710;SDS011;69465;51.630;6.570;2023-06-22T12:51:19;37.17;;;31.43;;
79710;SDS011;69465;51.630;6.570;2023-06-22T12:53:47;33.63;;;29.07;;
79710;SDS011;69465;51.630;6.570;2023-06-22T12:56:14;34.30;;;29.87;;
79710;SDS011;69465;51.630;6.570;2023-06-22T12:58:41;32.90;;;29.13;;
79710;SDS011;69465;51.630;6.570;2023-06-22T13:01:07;33.37;;;28.10;;
79710;SDS011;69465;51.630;6.570;2023-06-22T13:03:34;31.87;;;28.43;;
79710;SDS011;69465;51.630;6.570;2023-06-22T13:06:01;32.70;;;28.40;;
79710;SDS011;69465;51.630;6.570;2023-06-22T13:08:27;32.70;;;29.13;;
79710;SDS011;69465;51.630;6.570;2023-06-22T13:11:14;30.97;;;26.23;;
79710;SDS011;69465;51.630;6.570;2023-06-22T13:13:41;31.93;;;27.60;;
79710;SDS011;69465;51.630;6.570;2023-06-22T13:16:08;32.23;;;27.60;;
79710;SDS011;69465;51.630;6.570;2023-06-22T13:18:34;28.90;;;25.30;;
79710;SDS011;69465;51.630;6.570;2023-06-22T13:21:01;33.97;;;27.40;;
79710;SDS011;69465;51.630;6.570;2023-06-22T13:23:28;33.43;;;28.40;;
79710;SDS011;69465;51.630;6.570;2023-06-22T13:25:55;29.03;;;25.83;;
79710;SDS011;69465;51.630;6.570;2023-06-22T13:28:24;30.57;;;27.17;;
79710;SDS011;69465;51.630;6.570;2023-06-22T13:30:54;30.03;;;25.33;;
79710;SDS011;69465;51.630;6.570;2023-06-22T13:33:21;28.83;;;25.17;;
79710;SDS011;69465;51.630;6.570;2023-06-22T13:35:47;29.07;;;25.87;;
79710;SDS011;69465;51.630;6.570;2023-06-22T13:38:14;30.13;;;26.87;;
79710;SDS011;69465;51.630;6.570;2023-06-22T13:40:41;30.53;;;26.40;;
79710;SDS011;69465;51.630;6.570;2023-06-22T13:43:08;31.20;;;27.63;;
79710;SDS011;69465;51.630;6.570;2023-06-22T13:45:35;32.63;;;27.73;;
79710;SDS011;69465;51.630;6.570;2023-06-22T13:48:01;28.63;;;25.67;;
79710;SDS011;69465;51.630;6.570;2023-06-22T13:50:28;28.83;;;24.73;;
79710;SDS011;69465;51.630;6.570;2023-06-22T13:52:55;31.37;;;27.97;;
79710;SDS011;69465;51.630;6.570;2023-06-22T13:55:22;29.43;;;26.33;;
79710;SDS011;69465;51.630;6.570;2023-06-22T13:57:49;30.63;;;27.33;;
79710;SDS011;69465;51.630;6.570;2023-06-22T14:00:16;30.73;;;27.40;;
79710;SDS011;69465;51.630;6.570;2023-06-22T14:02:43;32.67;;;26.93;;
79710;SDS011;69465;51.630;6.570;2023-06-22T14:05:10;29.03;;;26.10;;
79710;SDS011;69465;51.630;6.570;2023-06-22T14:07:37;28.13;;;25.10;;
79710;SDS011;69465;51.630;6.570;2023-06-22T14:10:04;28.37;;;25.20;;
79710;SDS011;69465;51.630;6.570;2023-06-22T14:12:33;29.90;;;25.70;;
79710;SDS011;69465;51.630;6.570;2023-06-22T14:14:59;31.70;;;27.40;;
79710;SDS011;69465;51.630;6.570;2023-06-22T14:17:26;30.60;;;27.40;;
79710;SDS011;69465;51.630;6.570;2023-06-22T14:19:52;34.03;;;28.73;;
79710;SDS011;69465;51.630;6.570;2023-06-22T14:22:19;31.73;;;27.03;;
79710;SDS011;69465;51.630;6.570;2023-06-22T14:24:47;32.33;;;28.80;;
79710;SDS011;69465;51.630;6.570;2023-06-22T14:27:14;30.07;;;26.83;;